createdAt,value
2019-03-26T00:00:16.366Z,51.70
2019-03-26T00:02:42.651Z,51.70
2019-03-26T00:05:08.967Z,51.70
2019-03-26T00:07:35.414Z,51.80
2019-03-26T00:10:01.745Z,51.70
2019-03-26T00:12:28.293Z,51.70
2019-03-26T00:14:54.657Z,51.60
2019-03-26T00:17:21.079Z,51.70
2019-03-26T00:19:47.589Z,51.70
2019-03-26T00:22:14.020Z,51.60
2019-03-26T00:24:40.427Z,51.70
2019-03-26T00:27:08.009Z,51.70
2019-03-26T00:29:34.803Z,51.80
2019-03-26T00:32:01.416Z,51.70
2019-03-26T00:34:27.748Z,51.80
2019-03-26T00:36:54.052Z,51.70
2019-03-26T00:39:20.559Z,51.70
2019-03-26T00:41:46.885Z,51.70
2019-03-26T00:44:13.291Z,51.70
2019-03-26T00:46:39.943Z,51.70
2019-03-26T00:49:06.346Z,51.70
2019-03-26T00:51:32.651Z,51.70
2019-03-26T00:53:58.980Z,51.90
2019-03-26T00:56:25.392Z,52.00
2019-03-26T00:58:51.731Z,51.90
2019-03-26T01:01:18.388Z,51.80
2019-03-26T01:03:44.800Z,51.50
2019-03-26T01:06:11.241Z,51.70
2019-03-26T01:08:37.541Z,51.80
2019-03-26T01:11:04.197Z,51.70
2019-03-26T01:13:30.512Z,51.70
2019-03-26T01:15:56.825Z,52.50
2019-03-26T01:18:23.250Z,51.80
2019-03-26T01:20:49.554Z,51.90
2019-03-26T01:23:15.883Z,51.90
2019-03-26T01:25:42.412Z,51.90
2019-03-26T01:28:08.724Z,51.90
2019-03-26T01:30:35.160Z,52.50
2019-03-26T01:33:01.580Z,51.90
2019-03-26T01:35:28.127Z,52.00
2019-03-26T01:37:54.430Z,51.90
2019-03-26T01:40:20.859Z,52.10
2019-03-26T01:42:47.184Z,52.00
2019-03-26T01:45:13.597Z,52.10
2019-03-26T01:47:39.910Z,52.10
2019-03-26T01:50:06.739Z,52.10
2019-03-26T01:52:33.156Z,52.10
2019-03-26T01:54:59.600Z,52.00
2019-03-26T01:57:26.223Z,52.10
2019-03-26T01:59:52.656Z,52.20
2019-03-26T02:02:19.297Z,52.30
2019-03-26T02:04:58.937Z,53.00
2019-03-26T02:07:14.395Z,52.30
2019-03-26T02:09:41.023Z,52.40
2019-03-26T02:12:07.452Z,52.40
2019-03-26T02:14:33.992Z,52.50
2019-03-26T02:17:00.513Z,52.50
2019-03-26T02:19:27.047Z,53.20
2019-03-26T02:21:53.698Z,52.70
2019-03-26T02:24:20.225Z,52.70
2019-03-26T02:26:46.763Z,52.90
2019-03-26T02:29:13.407Z,53.00
2019-03-26T02:31:40.076Z,53.00
2019-03-26T02:34:06.487Z,53.00
2019-03-26T02:36:33.012Z,53.00
2019-03-26T02:38:59.808Z,53.10
2019-03-26T02:41:26.298Z,53.20
2019-03-26T02:43:52.951Z,53.20
2019-03-26T02:46:19.579Z,53.20
2019-03-26T02:48:46.204Z,53.20
2019-03-26T02:51:12.836Z,53.10
2019-03-26T02:53:39.362Z,53.20
2019-03-26T02:56:05.934Z,53.20
2019-03-26T02:58:32.451Z,53.30
2019-03-26T03:00:58.874Z,53.20
2019-03-26T03:03:25.512Z,53.30
2019-03-26T03:05:52.167Z,53.30
2019-03-26T03:08:18.720Z,53.30
2019-03-26T03:10:45.356Z,53.20
2019-03-26T03:13:11.864Z,53.40
2019-03-26T03:15:38.403Z,53.20
2019-03-26T03:18:04.920Z,53.30
2019-03-26T03:20:31.457Z,53.30
2019-03-26T03:22:58.075Z,53.40
2019-03-26T03:25:24.610Z,53.40
2019-03-26T03:27:51.180Z,53.40
2019-03-26T03:30:18.218Z,53.40
2019-03-26T03:32:44.844Z,53.40
2019-03-26T03:35:11.369Z,53.90
2019-03-26T03:37:38.001Z,53.90
2019-03-26T03:40:04.551Z,54.30
2019-03-26T03:42:38.841Z,54.20
2019-03-26T03:45:22.662Z,54.10
2019-03-26T03:47:49.960Z,55.60
2019-03-26T03:50:16.584Z,55.70
2019-03-26T03:52:45.284Z,55.50
2019-03-26T03:55:12.015Z,55.30
2019-03-26T03:57:38.528Z,55.20
2019-03-26T04:00:17.601Z,55.10
2019-03-26T04:02:46.029Z,55.10
2019-03-26T04:05:12.882Z,55.00
2019-03-26T04:07:39.240Z,54.90
2019-03-26T04:10:05.783Z,54.90
2019-03-26T04:12:32.183Z,54.80
2019-03-26T04:14:58.589Z,54.80
2019-03-26T04:17:24.932Z,54.70
2019-03-26T04:19:51.352Z,54.80
2019-03-26T04:22:18.003Z,55.00
2019-03-26T04:24:44.329Z,55.40
2019-03-26T04:27:10.615Z,55.60
2019-03-26T04:29:37.085Z,55.60
2019-03-26T04:32:03.551Z,55.70
2019-03-26T04:34:29.863Z,55.80
2019-03-26T04:36:56.371Z,55.90
2019-03-26T04:39:23.041Z,55.90
2019-03-26T04:41:49.333Z,56.00
2019-03-26T04:44:15.651Z,56.10
2019-03-26T04:46:41.965Z,56.00
2019-03-26T04:49:08.371Z,56.10
2019-03-26T04:51:34.703Z,56.20
2019-03-26T04:54:01.504Z,56.20
2019-03-26T04:56:28.179Z,56.20
2019-03-26T04:58:54.704Z,56.00
2019-03-26T05:01:21.022Z,55.90
2019-03-26T05:03:47.653Z,55.90
2019-03-26T05:06:14.101Z,55.90
2019-03-26T05:08:40.550Z,55.90
2019-03-26T05:11:07.180Z,55.90
2019-03-26T05:13:33.756Z,55.90
2019-03-26T05:16:00.189Z,55.90
2019-03-26T05:18:26.603Z,55.70
2019-03-26T05:20:53.059Z,55.70
2019-03-26T05:23:19.381Z,55.60
2019-03-26T05:25:45.907Z,55.60
2019-03-26T05:28:12.232Z,55.50
2019-03-26T05:30:38.553Z,55.60
2019-03-26T05:33:04.996Z,55.20
2019-03-26T05:35:31.514Z,55.20
2019-03-26T05:37:57.815Z,55.10
2019-03-26T05:40:24.240Z,55.00
2019-03-26T05:42:50.645Z,55.00
2019-03-26T05:45:16.971Z,55.00
2019-03-26T05:47:43.280Z,55.00
2019-03-26T05:50:09.909Z,55.00
2019-03-26T05:52:36.652Z,54.80
2019-03-26T05:55:06.079Z,54.80
2019-03-26T05:57:32.519Z,54.70
2019-03-26T05:59:58.832Z,54.70
2019-03-26T06:02:25.143Z,54.70
2019-03-26T06:04:51.465Z,54.70
2019-03-26T06:07:17.887Z,54.80
2019-03-26T06:09:44.335Z,54.80
2019-03-26T06:12:10.646Z,54.80
2019-03-26T06:14:36.948Z,54.60
2019-03-26T06:17:03.369Z,54.60
2019-03-26T06:19:29.681Z,54.60
2019-03-26T06:21:56.007Z,54.70
2019-03-26T06:24:22.316Z,54.70
2019-03-26T06:26:48.731Z,54.60
2019-03-26T06:29:15.159Z,54.70
2019-03-26T06:31:41.483Z,55.20
2019-03-26T06:34:10.504Z,54.60
2019-03-26T06:36:36.272Z,54.40
2019-03-26T06:39:16.695Z,54.40
2019-03-26T06:41:43.021Z,54.40
2019-03-26T06:44:09.429Z,54.40
2019-03-26T06:46:35.833Z,54.40
2019-03-26T06:49:02.352Z,54.30
2019-03-26T06:51:28.755Z,54.30
2019-03-26T06:53:55.193Z,54.30
2019-03-26T06:56:21.495Z,54.30
2019-03-26T06:58:48.044Z,54.30
2019-03-26T07:01:14.313Z,54.40
2019-03-26T07:03:40.624Z,54.40
2019-03-26T07:06:07.061Z,54.30
2019-03-26T07:08:33.384Z,54.30
2019-03-26T07:10:59.683Z,54.50
2019-03-26T07:13:26.020Z,54.40
2019-03-26T07:15:52.531Z,54.50
2019-03-26T07:18:18.807Z,54.60
2019-03-26T07:20:45.127Z,54.60
2019-03-26T07:23:11.524Z,54.60
2019-03-26T07:25:37.935Z,54.50
2019-03-26T07:28:04.621Z,54.50
2019-03-26T07:30:36.829Z,54.50
2019-03-26T07:33:03.262Z,55.20
2019-03-26T07:35:29.560Z,54.50
2019-03-26T07:37:55.888Z,54.30
2019-03-26T07:40:22.403Z,54.30
2019-03-26T07:42:48.803Z,54.20
2019-03-26T07:45:15.285Z,54.20
2019-03-26T07:47:41.710Z,54.10
2019-03-26T07:50:08.274Z,54.20
2019-03-26T07:52:34.584Z,54.20
2019-03-26T07:55:01.253Z,54.10
2019-03-26T07:57:27.576Z,54.00
2019-03-26T07:59:54.009Z,54.00
2019-03-26T08:02:20.325Z,53.90
2019-03-26T08:04:46.735Z,53.90
2019-03-26T08:07:13.283Z,53.90
2019-03-26T08:09:39.718Z,53.80
2019-03-26T08:12:06.021Z,53.70
2019-03-26T08:14:32.579Z,53.80
2019-03-26T08:16:59.075Z,53.70
2019-03-26T08:19:25.412Z,54.40
2019-03-26T08:21:51.819Z,55.50
2019-03-26T08:24:18.332Z,56.50
2019-03-26T08:26:44.897Z,57.90
2019-03-26T08:29:11.203Z,59.20
2019-03-26T08:31:38.311Z,59.80
2019-03-26T08:34:04.830Z,60.80
2019-03-26T08:36:31.135Z,61.60
2019-03-26T08:38:57.463Z,62.00
2019-03-26T08:41:24.004Z,62.50
2019-03-26T08:43:50.631Z,63.20
2019-03-26T08:46:17.069Z,63.10
2019-03-26T08:48:43.480Z,63.70
2019-03-26T08:51:09.812Z,64.20
2019-03-26T08:53:36.123Z,64.50
2019-03-26T08:56:10.817Z,64.60
2019-03-26T08:58:42.362Z,65.00
2019-03-26T09:01:16.977Z,65.40
2019-03-26T09:03:48.252Z,65.50
2019-03-26T09:06:14.720Z,65.50
2019-03-26T09:08:41.061Z,65.60
2019-03-26T09:11:07.566Z,66.20
2019-03-26T09:13:33.871Z,66.10
2019-03-26T09:16:00.428Z,66.30
2019-03-26T09:18:26.760Z,66.20
2019-03-26T09:20:53.091Z,66.40
2019-03-26T09:23:19.467Z,66.50
2019-03-26T09:25:45.779Z,66.70
2019-03-26T09:28:12.426Z,66.60
2019-03-26T09:30:38.952Z,67.30
2019-03-26T09:33:05.504Z,67.30
2019-03-26T09:35:31.839Z,66.50
2019-03-26T09:37:58.568Z,66.20
2019-03-26T09:40:24.904Z,65.40
2019-03-26T09:42:51.308Z,65.90
2019-03-26T09:45:17.823Z,64.80
2019-03-26T09:47:50.446Z,66.50
2019-03-26T09:50:23.445Z,66.00
2019-03-26T09:52:49.858Z,66.70
2019-03-26T09:55:16.679Z,65.90
2019-03-26T09:57:42.963Z,66.60
2019-03-26T10:00:10.507Z,67.10
2019-03-26T10:02:36.916Z,67.10
2019-03-26T10:05:05.364Z,70.10
2019-03-26T10:07:31.879Z,69.10
2019-03-26T10:09:58.302Z,67.90
2019-03-26T10:12:24.736Z,67.80
2019-03-26T10:14:51.199Z,67.50
2019-03-26T10:17:17.931Z,67.90
2019-03-26T10:19:44.331Z,68.90
2019-03-26T10:22:11.098Z,69.70
2019-03-26T10:24:37.771Z,70.00
2019-03-26T10:27:04.283Z,69.80
2019-03-26T10:29:31.314Z,68.70
2019-03-26T10:31:57.827Z,68.90
2019-03-26T10:34:24.489Z,69.50
2019-03-26T10:36:52.555Z,67.30
2019-03-26T10:39:18.825Z,67.30
2019-03-26T10:41:45.273Z,67.50
2019-03-26T10:44:11.689Z,66.50
2019-03-26T10:46:38.304Z,65.80
2019-03-26T10:49:04.736Z,67.60
2019-03-26T10:51:31.251Z,69.00
2019-03-26T10:53:57.683Z,66.00
2019-03-26T10:56:23.983Z,65.70
2019-03-26T10:58:50.922Z,64.80
2019-03-26T11:01:17.212Z,65.00
2019-03-26T11:03:43.871Z,65.00
2019-03-26T11:06:11.338Z,64.80
2019-03-26T11:08:37.969Z,64.20
2019-03-26T11:11:04.647Z,63.50
2019-03-26T11:13:31.172Z,64.40
2019-03-26T11:15:57.591Z,65.40
2019-03-26T11:18:23.936Z,68.60
2019-03-26T11:21:01.714Z,68.50
2019-03-26T11:23:18.480Z,68.40
2019-03-26T11:25:45.023Z,68.70
2019-03-26T11:28:11.536Z,68.30
2019-03-26T11:30:37.863Z,68.30
2019-03-26T11:33:04.277Z,68.00
2019-03-26T11:35:30.791Z,68.00
2019-03-26T11:37:57.205Z,68.00
2019-03-26T11:40:26.116Z,68.00
2019-03-26T11:42:52.875Z,68.00
2019-03-26T11:45:19.306Z,68.00
2019-03-26T11:47:45.971Z,68.00
2019-03-26T11:50:12.656Z,68.00
2019-03-26T11:52:39.417Z,68.00
2019-03-26T11:55:07.959Z,67.80
2019-03-26T11:57:34.271Z,67.80
2019-03-26T12:00:00.710Z,67.80
2019-03-26T12:02:27.181Z,67.50
2019-03-26T12:04:53.848Z,67.20
2019-03-26T12:07:20.288Z,67.10
2019-03-26T12:09:47.023Z,67.00
2019-03-26T12:12:13.320Z,66.50
2019-03-26T12:14:40.183Z,66.60
2019-03-26T12:17:06.719Z,66.60
2019-03-26T12:19:33.151Z,66.40
2019-03-26T12:21:59.494Z,66.20
2019-03-26T12:24:25.839Z,65.80
2019-03-26T12:26:52.210Z,65.70
2019-03-26T12:29:18.541Z,65.60
2019-03-26T12:31:44.975Z,65.50
2019-03-26T12:34:11.387Z,65.40
2019-03-26T12:36:40.264Z,65.30
2019-03-26T12:39:06.339Z,65.30
2019-03-26T12:41:32.658Z,65.10
2019-03-26T12:43:58.961Z,64.90
2019-03-26T12:46:25.373Z,64.50
2019-03-26T12:48:51.688Z,64.60
2019-03-26T12:51:17.992Z,64.60
2019-03-26T12:53:44.319Z,64.40
2019-03-26T12:56:10.778Z,64.30
2019-03-26T12:58:37.196Z,64.00
2019-03-26T13:01:03.848Z,35.40
2019-03-26T13:03:30.266Z,44.60
2019-03-26T13:05:56.612Z,46.70
2019-03-26T13:08:23.128Z,48.40
2019-03-26T13:10:53.730Z,49.90
2019-03-26T13:13:18.462Z,50.80
2019-03-26T13:15:45.076Z,51.60
2019-03-26T13:18:11.511Z,52.20
2019-03-26T13:20:38.453Z,52.50
2019-03-26T13:23:04.748Z,53.20
2019-03-26T13:25:31.183Z,53.40
2019-03-26T13:27:57.489Z,53.80
2019-03-26T13:30:23.810Z,53.90
2019-03-26T13:32:50.119Z,54.00
2019-03-26T13:35:16.524Z,54.80
2019-03-26T13:37:43.069Z,54.30
2019-03-26T13:40:09.880Z,54.30
2019-03-26T13:42:36.315Z,54.30
2019-03-26T13:45:04.724Z,54.20
2019-03-26T13:47:31.135Z,54.20
2019-03-26T13:49:57.587Z,54.30
2019-03-26T13:52:24.103Z,54.30
2019-03-26T13:54:50.441Z,54.10
2019-03-26T13:57:16.739Z,53.80
2019-03-26T13:59:43.055Z,53.90
2019-03-26T14:02:09.599Z,53.70
2019-03-26T14:04:36.112Z,53.70
2019-03-26T14:07:02.560Z,53.70
2019-03-26T14:09:28.880Z,53.60
2019-03-26T14:11:57.623Z,53.60
2019-03-26T14:14:23.391Z,53.30
2019-03-26T14:16:49.778Z,53.50
2019-03-26T14:19:16.124Z,53.60
2019-03-26T14:21:42.528Z,53.40
2019-03-26T14:24:08.935Z,53.50
2019-03-26T14:26:35.835Z,53.30
2019-03-26T14:29:02.095Z,53.20
2019-03-26T14:31:28.544Z,52.90
2019-03-26T14:33:55.102Z,53.00
2019-03-26T14:36:21.511Z,53.00
2019-03-26T14:38:47.940Z,52.90
2019-03-26T14:41:14.345Z,52.80
2019-03-26T14:43:40.681Z,52.60
2019-03-26T14:46:07.112Z,52.60
2019-03-26T14:48:33.424Z,52.60
2019-03-26T14:50:59.861Z,52.60
2019-03-26T14:53:26.162Z,52.70
2019-03-26T14:55:52.597Z,52.80
2019-03-26T14:58:18.927Z,52.60
2019-03-26T15:00:48.010Z,52.70
2019-03-26T15:03:14.786Z,52.60
2019-03-26T15:05:41.323Z,52.50
2019-03-26T15:08:07.801Z,52.30
2019-03-26T15:10:34.700Z,52.10
2019-03-26T15:13:01.323Z,52.10
2019-03-26T15:15:27.738Z,52.10
2019-03-26T15:17:54.544Z,51.80
2019-03-26T15:20:20.858Z,51.70
2019-03-26T15:22:47.188Z,51.80
2019-03-26T15:25:13.487Z,51.80
2019-03-26T15:27:39.916Z,51.60
2019-03-26T15:30:09.603Z,52.30
2019-03-26T15:32:35.917Z,51.60
2019-03-26T15:35:05.865Z,51.30
2019-03-26T15:37:32.304Z,51.30
2019-03-26T15:39:58.614Z,51.00
2019-03-26T15:42:24.941Z,51.00
2019-03-26T15:44:51.263Z,50.80
2019-03-26T15:47:19.826Z,50.80
2019-03-26T15:49:49.030Z,50.90
2019-03-26T15:52:18.268Z,50.80
2019-03-26T15:54:44.581Z,50.60
2019-03-26T15:57:10.898Z,50.50
2019-03-26T15:59:37.339Z,50.50
2019-03-26T16:02:03.644Z,50.30
2019-03-26T16:04:29.975Z,50.30
2019-03-26T16:06:56.319Z,50.20
2019-03-26T16:09:22.720Z,50.10
2019-03-26T16:11:49.062Z,50.20
2019-03-26T16:14:15.363Z,50.10
2019-03-26T16:16:41.772Z,49.80
2019-03-26T16:19:08.094Z,49.70
2019-03-26T16:21:34.566Z,49.60
2019-03-26T16:24:01.151Z,49.90
2019-03-26T16:26:27.574Z,37.20
2019-03-26T16:28:53.984Z,36.70
2019-03-26T16:31:20.487Z,39.20
2019-03-26T16:33:46.812Z,38.90
2019-03-26T16:36:13.144Z,39.20
2019-03-26T16:38:39.460Z,40.10
2019-03-26T16:41:05.931Z,40.80
2019-03-26T16:43:32.204Z,41.30
2019-03-26T16:45:58.611Z,41.70
2019-03-26T16:48:25.071Z,42.40
2019-03-26T16:50:51.500Z,42.40
2019-03-26T16:53:17.812Z,42.90
2019-03-26T16:55:44.228Z,43.10
2019-03-26T16:58:10.640Z,43.40
2019-03-26T17:00:36.984Z,43.50
2019-03-26T17:03:03.391Z,43.80
2019-03-26T17:05:29.803Z,44.00
2019-03-26T17:07:56.116Z,43.90
2019-03-26T17:10:22.520Z,44.00
2019-03-26T17:12:49.071Z,44.10
2019-03-26T17:15:15.395Z,44.10
2019-03-26T17:17:41.708Z,44.20
2019-03-26T17:20:08.131Z,44.20
2019-03-26T17:22:34.447Z,44.30
2019-03-26T17:25:00.884Z,44.30
2019-03-26T17:27:29.118Z,44.20
2019-03-26T17:29:55.922Z,44.30
2019-03-26T17:32:22.223Z,44.30
2019-03-26T17:34:48.528Z,44.30
2019-03-26T17:37:14.945Z,44.50
2019-03-26T17:39:41.457Z,45.20
2019-03-26T17:42:17.005Z,45.40
2019-03-26T17:44:36.090Z,45.50
2019-03-26T17:47:02.615Z,45.70
2019-03-26T17:49:29.180Z,45.60
2019-03-26T17:51:55.651Z,45.50
2019-03-26T17:54:21.976Z,45.60
2019-03-26T17:56:48.369Z,45.70
2019-03-26T17:59:14.783Z,45.60
2019-03-26T18:01:41.304Z,46.00
2019-03-26T18:04:07.651Z,46.40
2019-03-26T18:06:34.287Z,47.50
2019-03-26T18:09:01.113Z,48.90
2019-03-26T18:11:27.559Z,49.10
2019-03-26T18:13:54.492Z,49.10
2019-03-26T18:16:21.060Z,49.00
2019-03-26T18:18:48.694Z,48.90
2019-03-26T18:21:15.531Z,49.50
2019-03-26T18:23:42.317Z,49.00
2019-03-26T18:26:15.294Z,49.00
2019-03-26T18:28:41.641Z,49.00
2019-03-26T18:31:08.074Z,48.90
2019-03-26T18:33:34.501Z,49.00
2019-03-26T18:36:00.930Z,49.00
2019-03-26T18:38:28.768Z,48.90
2019-03-26T18:40:55.174Z,48.80
2019-03-26T18:43:21.795Z,48.80
2019-03-26T18:45:48.186Z,48.90
2019-03-26T18:48:14.643Z,49.10
2019-03-26T18:50:41.182Z,49.50
2019-03-26T18:53:07.752Z,50.10
2019-03-26T18:55:34.157Z,50.50
2019-03-26T18:58:00.583Z,50.30
2019-03-26T19:00:35.690Z,51.10
2019-03-26T19:03:02.345Z,51.80
2019-03-26T19:05:28.695Z,51.80
2019-03-26T19:07:55.207Z,52.00
2019-03-26T19:10:28.979Z,52.00
2019-03-26T19:12:57.098Z,52.10
2019-03-26T19:15:24.083Z,53.10
2019-03-26T19:17:50.630Z,53.20
2019-03-26T19:20:17.024Z,53.20
2019-03-26T19:22:43.541Z,53.10
2019-03-26T19:25:09.957Z,52.80
2019-03-26T19:27:36.481Z,52.70
2019-03-26T19:30:05.217Z,52.50
2019-03-26T19:32:31.635Z,52.40
2019-03-26T19:34:57.940Z,52.20
2019-03-26T19:37:24.292Z,52.00
2019-03-26T19:39:51.772Z,52.50
2019-03-26T19:42:18.146Z,51.90
2019-03-26T19:44:44.455Z,51.90
2019-03-26T19:47:10.867Z,52.00
2019-03-26T19:49:37.537Z,51.90
2019-03-26T19:52:03.996Z,52.00
2019-03-26T19:54:30.564Z,52.20
2019-03-26T19:56:56.971Z,52.40
2019-03-26T19:59:23.524Z,52.20
2019-03-26T20:01:50.592Z,52.30
2019-03-26T20:04:17.247Z,52.40
2019-03-26T20:06:43.772Z,52.00
2019-03-26T20:09:10.184Z,51.90
2019-03-26T20:11:36.603Z,51.80
2019-03-26T20:14:03.050Z,51.80
2019-03-26T20:16:41.294Z,51.70
2019-03-26T20:18:57.601Z,51.70
2019-03-26T20:21:26.992Z,51.60
2019-03-26T20:23:53.307Z,51.70
2019-03-26T20:26:19.623Z,51.60
2019-03-26T20:28:45.936Z,50.80
2019-03-26T20:31:12.461Z,51.30
2019-03-26T20:33:42.130Z,51.20
2019-03-26T20:36:07.317Z,51.20
2019-03-26T20:38:33.853Z,51.50
2019-03-26T20:41:00.347Z,51.20
2019-03-26T20:43:36.723Z,51.30
2019-03-26T20:45:54.927Z,51.10
2019-03-26T20:48:21.456Z,51.10
2019-03-26T20:50:47.978Z,51.00
2019-03-26T20:53:14.424Z,51.10
2019-03-26T20:55:53.376Z,51.00
2019-03-26T20:58:09.164Z,51.00
2019-03-26T21:00:39.659Z,51.00
2019-03-26T21:03:06.384Z,50.90
2019-03-26T21:05:33.028Z,50.80
2019-03-26T21:07:59.332Z,50.90
2019-03-26T21:10:25.863Z,50.90
2019-03-26T21:12:52.520Z,50.90
2019-03-26T21:15:18.842Z,50.80
2019-03-26T21:17:45.384Z,50.90
2019-03-26T21:20:11.929Z,50.90
2019-03-26T21:22:38.464Z,50.90
2019-03-26T21:25:06.379Z,50.90
2019-03-26T21:27:32.689Z,51.00
2019-03-26T21:30:10.065Z,51.00
2019-03-26T21:32:27.336Z,51.00
2019-03-26T21:34:53.982Z,51.10
2019-03-26T21:37:20.813Z,51.10
2019-03-26T21:39:47.124Z,51.70
2019-03-26T21:42:16.591Z,51.10
2019-03-26T21:44:42.897Z,51.10
2019-03-26T21:47:09.319Z,51.10
2019-03-26T21:49:35.750Z,51.10
2019-03-26T21:52:02.175Z,51.20
2019-03-26T21:54:28.652Z,51.10
2019-03-26T21:56:54.960Z,51.20
2019-03-26T21:59:21.471Z,51.30
2019-03-26T22:01:47.790Z,51.90
2019-03-26T22:04:14.197Z,51.30
2019-03-26T22:06:40.659Z,51.30
2019-03-26T22:09:07.180Z,51.40
2019-03-26T22:11:33.485Z,51.30
2019-03-26T22:13:59.943Z,51.40
2019-03-26T22:16:26.497Z,51.40
2019-03-26T22:18:52.831Z,51.40
2019-03-26T22:21:19.356Z,51.50
2019-03-26T22:23:45.697Z,51.60
2019-03-26T22:26:12.016Z,51.70
2019-03-26T22:28:38.443Z,51.80
2019-03-26T22:31:06.291Z,51.90
2019-03-26T22:33:32.615Z,52.10
2019-03-26T22:35:59.265Z,52.10
2019-03-26T22:38:25.683Z,52.10
2019-03-26T22:40:53.484Z,52.30
2019-03-26T22:43:19.823Z,52.40
2019-03-26T22:45:46.600Z,52.50
2019-03-26T22:48:15.936Z,52.40
2019-03-26T22:50:42.500Z,52.60
2019-03-26T22:53:09.005Z,52.70
2019-03-26T22:55:35.643Z,52.90
2019-03-26T22:58:02.356Z,53.00
2019-03-26T23:00:30.504Z,53.10
2019-03-26T23:02:57.039Z,53.20
2019-03-26T23:05:23.453Z,53.30
2019-03-26T23:07:49.889Z,53.40
2019-03-26T23:10:17.122Z,53.40
2019-03-26T23:12:43.564Z,53.40
2019-03-26T23:15:15.929Z,53.40
2019-03-26T23:17:42.449Z,53.40
2019-03-26T23:20:08.855Z,53.40
2019-03-26T23:22:35.308Z,53.50
2019-03-26T23:25:01.744Z,53.40
2019-03-26T23:27:28.361Z,53.40
2019-03-26T23:29:54.792Z,53.50
2019-03-26T23:32:21.226Z,53.60
2019-03-26T23:34:47.563Z,53.40
2019-03-26T23:37:13.876Z,53.40
2019-03-26T23:39:40.664Z,53.50
2019-03-26T23:42:07.097Z,53.50
2019-03-26T23:44:33.616Z,53.40
2019-03-26T23:46:59.960Z,53.50
2019-03-26T23:49:26.588Z,53.50
2019-03-26T23:51:53.231Z,53.50
2019-03-26T23:54:19.695Z,53.60
2019-03-26T23:56:46.224Z,53.50
2019-03-26T23:59:12.617Z,53.50
